Time;durP1;ratioP1;P1;durP2;ratioP2;P2;SDS_P1;SDS_P2;PMS_P1;PMS_P2;Temp;Humidity;BMP_temperature;BMP_pressure;BME280_temperature;BME280_humidity;BME280_pressure;Samples;Min_cycle;Max_cycle;Signal;HPM_P1;HPM_P2
2022/06/19 00:01:57;;;;;;;10.65;2.72;;;14.80;99.90;;;;;;5059625;28;20453;-46
2022/06/19 00:04:23;;;;;;;8.40;2.70;;;14.90;99.90;;;;;;5065480;28;20479;-48
2022/06/19 00:06:49;;;;;;;11.90;4.07;;;14.80;99.90;;;;;;5057388;28;20391;-44
2022/06/19 00:09:15;;;;;;;10.70;3.40;;;14.80;99.90;;;;;;5062043;28;20086;-45
2022/06/19 00:11:40;;;;;;;11.00;3.10;;;14.80;99.90;;;;;;5058433;28;20071;-45
2022/06/19 00:14:07;;;;;;;6.13;2.70;;;14.70;99.90;;;;;;5060704;28;20024;-45
2022/06/19 00:16:33;;;;;;;11.40;2.95;;;14.70;99.90;;;;;;5063152;28;20159;-47
2022/06/19 00:18:59;;;;;;;12.00;3.15;;;14.70;99.90;;;;;;5059727;28;20426;-45
2022/06/19 00:21:24;;;;;;;12.25;3.55;;;14.70;99.90;;;;;;5064831;28;20055;-45
2022/06/19 00:23:50;;;;;;;8.45;2.67;;;14.70;99.90;;;;;;5058308;28;20021;-45
2022/06/19 00:26:16;;;;;;;15.50;3.50;;;14.70;99.90;;;;;;5061730;28;20069;-46
2022/06/19 00:28:44;;;;;;;9.52;2.42;;;14.70;99.90;;;;;;5060509;28;20036;-46
2022/06/19 00:31:10;;;;;;;7.85;2.30;;;14.80;99.90;;;;;;5057949;28;20391;-45
2022/06/19 00:33:36;;;;;;;9.25;2.80;;;14.80;99.90;;;;;;5057106;28;20029;-45
2022/06/19 00:36:03;;;;;;;10.57;3.47;;;14.70;99.90;;;;;;5060260;28;20021;-45
2022/06/19 00:38:29;;;;;;;6.50;2.38;;;14.70;99.90;;;;;;5064121;28;20112;-45
2022/06/19 00:40:56;;;;;;;9.63;2.35;;;14.70;99.90;;;;;;5057869;28;20174;-45
2022/06/19 00:43:22;;;;;;;9.70;2.45;;;14.80;99.90;;;;;;5060961;28;20021;-46
2022/06/19 00:45:50;;;;;;;11.27;2.80;;;14.70;99.90;;;;;;5061450;28;20092;-44
2022/06/19 00:48:30;;;;;;;10.50;3.25;;;14.70;99.90;;;;;;5050831;28;20039;-44
2022/06/19 00:51:00;;;;;;;9.70;2.65;;;14.70;99.90;;;;;;5060194;28;20034;-45
2022/06/19 00:53:37;;;;;;;8.20;3.05;;;14.70;99.90;;;;;;5060565;28;20036;-45
2022/06/19 00:56:04;;;;;;;12.25;3.17;;;14.70;99.90;;;;;;5059295;28;20034;-44
2022/06/19 00:58:38;;;;;;;13.73;2.72;;;14.70;99.90;;;;;;5061258;28;20033;-44
2022/06/19 01:01:11;;;;;;;13.25;3.03;;;14.70;99.90;;;;;;5056775;28;20086;-45
2022/06/19 01:03:39;;;;;;;10.18;2.55;;;14.70;99.90;;;;;;5056907;28;20028;-44
2022/06/19 01:06:06;;;;;;;8.73;2.90;;;14.70;99.90;;;;;;5057797;28;20529;-45
2022/06/19 01:08:32;;;;;;;10.23;2.70;;;14.60;99.90;;;;;;5058014;28;20048;-45
2022/06/19 01:10:58;;;;;;;6.47;2.40;;;14.70;99.90;;;;;;5064329;28;20487;-45
2022/06/19 01:13:27;;;;;;;13.18;2.83;;;14.60;99.90;;;;;;5057324;28;20074;-45
2022/06/19 01:15:53;;;;;;;13.57;3.30;;;14.60;99.90;;;;;;5063905;28;20033;-46
2022/06/19 01:18:20;;;;;;;13.07;3.45;;;14.60;99.90;;;;;;5057442;28;20040;-45
2022/06/19 01:20:46;;;;;;;10.68;3.03;;;14.50;99.90;;;;;;5064926;28;20028;-45
2022/06/19 01:23:27;;;;;;;11.55;2.63;;;14.50;99.90;;;;;;5057690;28;20096;-49
2022/06/19 01:25:53;;;;;;;11.15;3.03;;;14.50;99.90;;;;;;5058351;28;20112;-44
2022/06/19 01:28:46;;;;;;;5.97;2.25;;;14.40;99.90;;;;;;5062909;28;20106;-44
2022/06/19 01:31:15;;;;;;;10.65;4.20;;;14.40;99.90;;;;;;5060242;28;20693;-45
2022/06/19 01:33:57;;;;;;;16.50;4.13;;;14.40;99.90;;;;;;5060829;28;20029;-45
2022/06/19 01:36:25;;;;;;;14.02;4.38;;;14.30;99.90;;;;;;5049534;28;20110;-45
2022/06/19 01:38:52;;;;;;;16.75;3.42;;;14.30;99.90;;;;;;5060675;28;20518;-46
2022/06/19 01:41:31;;;;;;;9.15;2.60;;;14.30;99.90;;;;;;5060699;28;20024;-51
2022/06/19 01:43:57;;;;;;;11.07;2.83;;;14.30;99.90;;;;;;5058817;28;20021;-49
2022/06/19 01:46:24;;;;;;;10.77;2.10;;;14.20;99.90;;;;;;5066813;28;20029;-49
2022/06/19 01:48:50;;;;;;;10.43;4.10;;;14.20;99.90;;;;;;5064939;28;20103;-48
2022/06/19 01:51:16;;;;;;;15.15;3.35;;;14.20;99.90;;;;;;5060993;28;20032;-48
2022/06/19 01:53:53;;;;;;;12.38;3.10;;;14.20;99.90;;;;;;5066622;28;20054;-49
2022/06/19 01:56:19;;;;;;;13.13;3.28;;;14.20;99.90;;;;;;5057864;28;20037;-53
2022/06/19 01:58:49;;;;;;;11.00;3.05;;;14.20;99.90;;;;;;5067613;28;20055;-49
2022/06/19 02:01:14;;;;;;;7.13;2.53;;;14.20;99.90;;;;;;5056076;28;20052;-45
2022/06/19 02:03:47;;;;;;;11.48;3.22;;;14.20;99.90;;;;;;5052561;28;20180;-50
2022/06/19 02:06:16;;;;;;;10.82;3.25;;;14.20;99.90;;;;;;5066878;28;20045;-49
2022/06/19 02:08:44;;;;;;;9.18;2.92;;;14.20;99.90;;;;;;5055182;28;20049;-46
2022/06/19 02:11:11;;;;;;;8.05;2.60;;;14.20;99.90;;;;;;5067479;28;20141;-45
2022/06/19 02:13:38;;;;;;;10.40;3.25;;;14.20;99.90;;;;;;5060406;28;20159;-47
2022/06/19 02:16:08;;;;;;;10.52;2.80;;;14.20;99.90;;;;;;5068385;28;20566;-45
2022/06/19 02:18:40;;;;;;;10.63;2.75;;;14.20;99.90;;;;;;5060691;28;20111;-48
2022/06/19 02:21:07;;;;;;;6.47;1.88;;;14.20;99.90;;;;;;5062196;28;20028;-45
2022/06/19 02:23:35;;;;;;;9.60;2.75;;;14.20;99.90;;;;;;5063520;28;20545;-45
2022/06/19 02:26:04;;;;;;;14.00;2.83;;;14.20;99.90;;;;;;5062218;28;20436;-47
2022/06/19 02:28:31;;;;;;;13.52;2.92;;;14.20;99.90;;;;;;5064586;28;20449;-47
2022/06/19 02:30:56;;;;;;;10.10;2.92;;;14.10;99.90;;;;;;5061528;28;20732;-45
2022/06/19 02:33:27;;;;;;;9.77;3.17;;;14.10;99.90;;;;;;5066271;28;20021;-45
2022/06/19 02:35:53;;;;;;;17.35;3.38;;;14.10;99.90;;;;;;5058277;28;20075;-45
2022/06/19 02:38:21;;;;;;;12.70;2.95;;;14.10;99.90;;;;;;5062878;28;20669;-44
2022/06/19 02:40:58;;;;;;;15.10;3.65;;;14.10;99.90;;;;;;5060720;28;20025;-45
2022/06/19 02:43:32;;;;;;;11.18;3.13;;;14.00;99.90;;;;;;5053425;28;20021;-45
2022/06/19 02:45:59;;;;;;;8.77;3.00;;;13.90;99.90;;;;;;5062239;28;20017;-49
2022/06/19 02:48:30;;;;;;;13.73;3.80;;;13.90;99.90;;;;;;5060132;28;20021;-50
2022/06/19 02:50:57;;;;;;;12.38;3.22;;;13.90;99.90;;;;;;5060928;28;20040;-47
2022/06/19 02:53:23;;;;;;;6.10;2.55;;;13.90;99.90;;;;;;5064840;28;20017;-50
2022/06/19 02:55:49;;;;;;;11.32;2.97;;;13.90;99.90;;;;;;5059515;28;20063;-51
2022/06/19 02:58:19;;;;;;;14.00;3.05;;;13.80;99.90;;;;;;5067333;28;20048;-46
2022/06/19 03:00:46;;;;;;;10.10;3.30;;;13.80;99.90;;;;;;5060133;28;20017;-47
2022/06/19 03:03:22;;;;;;;12.38;4.22;;;13.80;99.90;;;;;;5062778;28;20017;-50
2022/06/19 03:05:48;;;;;;;15.13;2.63;;;13.80;99.90;;;;;;5061333;28;20017;-49
2022/06/19 03:08:14;;;;;;;14.18;2.67;;;13.70;99.90;;;;;;5063211;28;20062;-46
2022/06/19 03:10:39;;;;;;;16.95;3.83;;;13.70;99.90;;;;;;5063023;28;20040;-48
2022/06/19 03:13:05;;;;;;;22.60;3.45;;;13.60;99.90;;;;;;5061406;28;20025;-45
2022/06/19 03:15:30;;;;;;;15.82;3.83;;;13.60;99.90;;;;;;5064455;28;20491;-46
2022/06/19 03:17:56;;;;;;;11.32;3.20;;;13.50;99.90;;;;;;5059987;28;20028;-46
2022/06/19 03:20:24;;;;;;;17.67;3.67;;;13.50;99.90;;;;;;5062948;28;20039;-49
2022/06/19 03:22:50;;;;;;;13.57;3.40;;;13.50;99.90;;;;;;5060536;28;20024;-47
2022/06/19 03:25:16;;;;;;;13.57;3.70;;;13.50;99.90;;;;;;5063022;28;20021;-50
2022/06/19 03:27:41;;;;;;;12.80;3.60;;;13.50;99.90;;;;;;5063128;28;20017;-45
2022/06/19 03:30:08;;;;;;;12.70;3.97;;;13.50;99.90;;;;;;5061723;28;20170;-48
2022/06/19 03:32:34;;;;;;;13.10;3.67;;;13.50;99.90;;;;;;5061989;28;20396;-45
2022/06/19 03:34:59;;;;;;;18.10;3.70;;;13.50;99.90;;;;;;5061098;28;20154;-44
2022/06/19 03:37:25;;;;;;;12.68;3.70;;;13.60;99.90;;;;;;5063015;28;20031;-47
2022/06/19 03:39:51;;;;;;;14.93;2.97;;;13.60;99.90;;;;;;5061006;28;20499;-45
2022/06/19 03:42:17;;;;;;;18.77;4.03;;;13.60;99.90;;;;;;5062266;28;20111;-45
2022/06/19 03:44:43;;;;;;;19.05;3.20;;;13.60;99.90;;;;;;5062360;28;20375;-48
2022/06/19 03:47:08;;;;;;;16.50;3.20;;;13.60;99.90;;;;;;5061754;28;20028;-45
2022/06/19 03:49:34;;;;;;;12.93;2.80;;;13.70;99.90;;;;;;5062351;28;20025;-45
2022/06/19 03:52:00;;;;;;;11.13;2.92;;;13.70;99.90;;;;;;5060421;28;20025;-48
2022/06/19 03:54:25;;;;;;;15.65;3.75;;;13.70;99.90;;;;;;5062272;28;20513;-50
2022/06/19 03:56:51;;;;;;;17.30;3.20;;;13.70;99.90;;;;;;5061831;28;20013;-51
2022/06/19 03:59:16;;;;;;;11.95;3.80;;;13.80;99.90;;;;;;5062331;28;20103;-49
2022/06/19 04:01:42;;;;;;;19.05;5.00;;;13.90;99.90;;;;;;5060497;28;20032;-50
2022/06/19 04:04:09;;;;;;;13.68;3.03;;;13.90;99.90;;;;;;5061319;28;20059;-46
2022/06/19 04:06:38;;;;;;;10.35;3.70;;;13.90;99.90;;;;;;5062260;28;20780;-46
2022/06/19 04:09:06;;;;;;;14.45;2.88;;;13.90;99.90;;;;;;5060477;28;20040;-44
2022/06/19 04:11:31;;;;;;;12.38;4.05;;;14.00;99.90;;;;;;5061912;28;20028;-45
2022/06/19 04:13:58;;;;;;;16.25;4.30;;;14.00;99.90;;;;;;5061569;28;20386;-45
2022/06/19 04:16:30;;;;;;;17.15;5.03;;;14.00;99.90;;;;;;5062005;28;20060;-45
2022/06/19 04:18:57;;;;;;;13.07;3.40;;;14.10;99.90;;;;;;5059695;28;20059;-47
2022/06/19 04:21:26;;;;;;;12.02;2.88;;;14.10;99.90;;;;;;5060892;28;20029;-48
2022/06/19 04:23:54;;;;;;;14.48;2.92;;;14.10;99.90;;;;;;5060300;28;20021;-50
2022/06/19 04:26:20;;;;;;;15.80;3.80;;;14.10;99.90;;;;;;5061816;28;20052;-46
2022/06/19 04:28:46;;;;;;;15.23;3.55;;;14.10;99.90;;;;;;5061193;28;20105;-48
2022/06/19 04:31:11;;;;;;;11.27;3.00;;;14.10;99.90;;;;;;5060794;28;20027;-46
2022/06/19 04:33:40;;;;;;;8.02;3.00;;;14.20;99.90;;;;;;5061425;28;20028;-44
2022/06/19 04:38:33;;;;;;;15.60;3.28;;;14.20;99.90;;;;;;5038302;28;20048;-53
2022/06/19 04:40:59;;;;;;;13.73;3.17;;;14.20;99.90;;;;;;5039901;28;20032;-51
2022/06/19 04:43:24;;;;;;;11.48;3.13;;;14.20;99.90;;;;;;5041874;28;20074;-52
2022/06/19 04:45:50;;;;;;;14.43;3.15;;;14.30;99.90;;;;;;5041209;28;20044;-53
2022/06/19 04:48:16;;;;;;;10.93;3.00;;;14.40;99.90;;;;;;5038116;28;20026;-50
2022/06/19 04:50:42;;;;;;;10.80;3.55;;;14.40;99.90;;;;;;5044065;28;20368;-55
2022/06/19 04:53:07;;;;;;;14.60;3.45;;;14.50;99.90;;;;;;5020357;28;20079;-50
2022/06/19 04:55:33;;;;;;;11.80;3.03;;;14.60;99.90;;;;;;5043318;28;20086;-49
2022/06/19 04:58:03;;;;;;;11.73;3.50;;;14.60;99.90;;;;;;5039785;28;20545;-49
2022/06/19 05:00:30;;;;;;;9.25;3.00;;;14.70;99.90;;;;;;5037572;28;20022;-53
2022/06/19 05:02:56;;;;;;;10.45;2.90;;;14.80;99.90;;;;;;5043480;28;20101;-50
2022/06/19 05:05:22;;;;;;;15.07;4.45;;;14.80;99.90;;;;;;5037516;28;20372;-52
2022/06/19 05:07:48;;;;;;;11.18;3.53;;;14.90;99.90;;;;;;5044455;28;20025;-56
2022/06/19 05:10:15;;;;;;;23.52;3.47;;;14.90;99.90;;;;;;5033246;28;20064;-51
2022/06/19 05:12:41;;;;;;;12.55;4.07;;;14.90;99.90;;;;;;5026000;28;20037;-54
2022/06/19 05:15:08;;;;;;;14.50;3.55;;;14.90;99.90;;;;;;5020604;28;20056;-54
2022/06/19 05:17:34;;;;;;;12.63;4.07;;;14.90;99.90;;;;;;5037449;28;20034;-53
2022/06/19 05:20:00;;;;;;;12.35;3.17;;;14.90;99.90;;;;;;5045481;28;20626;-53
2022/06/19 05:22:25;;;;;;;10.07;2.83;;;14.80;99.90;;;;;;5040778;28;20035;-50
2022/06/19 05:24:51;;;;;;;10.25;2.88;;;14.80;99.90;;;;;;5048878;28;20056;-51
2022/06/19 05:27:16;;;;;;;13.60;3.55;;;14.80;99.90;;;;;;5041691;28;20021;-52
2022/06/19 05:29:42;;;;;;;16.85;3.60;;;14.80;99.90;;;;;;5048335;28;20472;-53
2022/06/19 05:32:08;;;;;;;10.88;3.20;;;14.80;99.90;;;;;;5041218;28;20036;-50
2022/06/19 05:34:36;;;;;;;12.27;4.43;;;14.80;99.90;;;;;;5041028;28;20029;-50
2022/06/19 05:37:03;;;;;;;13.50;3.40;;;14.70;99.90;;;;;;5047520;28;20029;-54
2022/06/19 05:39:28;;;;;;;8.85;2.65;;;14.70;99.90;;;;;;5041214;28;20025;-51
2022/06/19 05:41:57;;;;;;;11.15;4.10;;;14.80;99.90;;;;;;5030036;28;20025;-53
2022/06/19 05:44:24;;;;;;;14.50;3.13;;;14.90;99.90;;;;;;5041048;28;20434;-55
2022/06/19 05:46:50;;;;;;;13.98;3.63;;;15.00;99.90;;;;;;5041388;28;20009;-51
2022/06/19 05:49:16;;;;;;;7.68;2.63;;;15.00;99.90;;;;;;5044697;28;20040;-54
2022/06/19 05:51:42;;;;;;;10.82;2.95;;;15.00;99.90;;;;;;5043784;28;20037;-56
2022/06/19 05:54:08;;;;;;;13.23;3.50;;;15.00;99.90;;;;;;5043581;28;20561;-51
2022/06/19 05:56:34;;;;;;;12.95;3.78;;;15.00;99.90;;;;;;5045850;28;20513;-52
2022/06/19 05:59:00;;;;;;;15.45;3.78;;;15.00;99.90;;;;;;5042523;28;20033;-56
2022/06/19 06:01:28;;;;;;;8.82;2.60;;;15.00;99.90;;;;;;5044350;28;20104;-51
2022/06/19 06:03:54;;;;;;;11.23;3.35;;;15.00;99.90;;;;;;5042238;28;20013;-54
2022/06/19 06:06:27;;;;;;;8.13;3.38;;;15.00;99.90;;;;;;5026524;28;20021;-55
2022/06/19 06:08:54;;;;;;;8.98;3.08;;;15.00;99.90;;;;;;5042698;28;20026;-52
2022/06/19 06:11:20;;;;;;;11.73;3.90;;;15.00;99.90;;;;;;5044077;28;20025;-55
2022/06/19 06:13:46;;;;;;;9.38;2.85;;;15.00;99.90;;;;;;5044023;28;20108;-53
2022/06/19 06:16:14;;;;;;;11.95;3.30;;;14.90;99.90;;;;;;5043974;28;20156;-52
2022/06/19 06:18:40;;;;;;;7.97;2.95;;;14.90;99.90;;;;;;5043125;28;20048;-52
2022/06/19 06:21:10;;;;;;;11.13;3.03;;;15.00;99.90;;;;;;5042669;28;20029;-53
2022/06/19 06:23:36;;;;;;;10.75;3.47;;;14.90;99.90;;;;;;5043814;28;20032;-55
2022/06/19 06:26:14;;;;;;;8.60;2.47;;;14.90;99.90;;;;;;5042523;28;20018;-53
2022/06/19 06:28:42;;;;;;;10.23;3.10;;;14.90;99.90;;;;;;5044014;28;20644;-49
2022/06/19 06:31:08;;;;;;;7.35;2.22;;;15.00;99.90;;;;;;5043003;28;20495;-49
2022/06/19 06:33:34;;;;;;;6.32;2.00;;;15.10;99.90;;;;;;5043375;28;20028;-51
2022/06/19 06:36:01;;;;;;;7.03;2.15;;;15.20;99.90;;;;;;5041427;28;20041;-53
2022/06/19 06:38:27;;;;;;;6.57;1.98;;;15.30;99.90;;;;;;5044061;28;20028;-53
2022/06/19 06:40:53;;;;;;;7.13;2.17;;;15.40;99.90;;;;;;5042634;28;20461;-49
2022/06/19 06:43:20;;;;;;;6.63;2.38;;;15.50;99.90;;;;;;5043523;28;20017;-53
2022/06/19 06:45:46;;;;;;;5.05;1.73;;;15.60;99.90;;;;;;5025838;28;20032;-50
2022/06/19 06:48:12;;;;;;;5.85;1.63;;;15.60;99.90;;;;;;5040198;28;20033;-52
2022/06/19 06:50:38;;;;;;;7.38;1.90;;;15.70;99.90;;;;;;5045474;28;20116;-54
2022/06/19 06:53:05;;;;;;;5.78;1.17;;;15.80;99.90;;;;;;5041044;28;20498;-52
2022/06/19 06:55:31;;;;;;;6.88;2.22;;;15.90;99.90;;;;;;5045277;28;20036;-53
2022/06/19 06:57:56;;;;;;;7.03;2.35;;;16.10;99.90;;;;;;5042369;28;20399;-55
2022/06/19 07:00:23;;;;;;;4.32;1.63;;;16.30;99.90;;;;;;5039808;28;20025;-54
2022/06/19 07:02:49;;;;;;;7.03;1.60;;;16.50;99.90;;;;;;5027688;28;20029;-52
2022/06/19 07:05:16;;;;;;;5.50;1.63;;;16.70;99.90;;;;;;5039716;28;20025;-53
2022/06/19 07:07:41;;;;;;;4.13;1.63;;;16.80;99.90;;;;;;5045815;28;20070;-49
2022/06/19 07:10:08;;;;;;;4.18;1.33;;;16.80;99.90;;;;;;5040617;28;20120;-53
2022/06/19 07:12:33;;;;;;;4.68;1.45;;;16.90;99.90;;;;;;5045095;28;20088;-52
2022/06/19 07:14:59;;;;;;;6.45;1.55;;;17.00;99.90;;;;;;5042053;28;20507;-53
2022/06/19 07:17:24;;;;;;;3.33;1.52;;;17.10;99.90;;;;;;5039651;28;20033;-50
2022/06/19 07:19:50;;;;;;;5.43;1.27;;;17.40;99.90;;;;;;5046083;28;20391;-54
2022/06/19 07:22:17;;;;;;;3.38;1.40;;;17.60;99.90;;;;;;5039153;28;20147;-50
2022/06/19 07:24:43;;;;;;;4.63;1.83;;;17.70;99.90;;;;;;5045459;28;20025;-52
2022/06/19 07:27:09;;;;;;;3.72;1.35;;;17.90;99.90;;;;;;5039952;28;20057;-54
2022/06/19 07:29:40;;;;;;;4.70;1.77;;;17.80;99.50;;;;;;5027352;28;20021;-51
2022/06/19 07:32:06;;;;;;;2.65;1.25;;;17.80;99.60;;;;;;5039882;28;20021;-55
2022/06/19 07:34:31;;;;;;;1.88;1.48;;;17.90;99.90;;;;;;5039130;28;20021;-51
2022/06/19 07:36:57;;;;;;;4.05;1.52;;;17.90;99.60;;;;;;5027576;28;20032;-51
2022/06/19 07:39:23;;;;;;;2.10;1.10;;;18.00;99.90;;;;;;5039278;28;20033;-53
2022/06/19 07:41:48;;;;;;;5.10;1.77;;;18.10;99.90;;;;;;5045481;28;20033;-52
2022/06/19 07:44:14;;;;;;;4.40;1.50;;;18.10;99.10;;;;;;5034203;28;20025;-52
2022/06/19 07:50:09;;;;;;;4.03;1.33;;;17.90;99.30;;;;;;5021033;28;20110;-51
2022/06/19 07:52:10;;;;;;;4.60;1.45;;;17.70;99.30;;;;;;5041263;28;20058;-55
2022/06/19 07:54:35;;;;;;;3.35;1.30;;;17.60;99.70;;;;;;5042334;28;20021;-53
2022/06/19 07:57:01;;;;;;;4.68;1.65;;;17.40;99.50;;;;;;5041966;28;20056;-53
2022/06/19 07:59:27;;;;;;;4.90;1.63;;;17.40;99.80;;;;;;5042262;28;20028;-52
2022/06/19 08:01:52;;;;;;;2.75;1.25;;;17.40;99.90;;;;;;5039832;28;20056;-51
2022/06/19 08:04:18;;;;;;;1.90;1.10;;;17.40;99.90;;;;;;5042253;28;20025;-55
2022/06/19 08:06:43;;;;;;;4.38;1.58;;;17.40;99.90;;;;;;5041331;28;20029;-50
2022/06/19 08:09:09;;;;;;;4.85;1.77;;;17.30;99.90;;;;;;5041518;28;20104;-52
2022/06/19 08:11:34;;;;;;;4.10;1.63;;;17.30;99.90;;;;;;5024029;28;20033;-52
2022/06/19 08:14:00;;;;;;;2.25;1.50;;;17.40;99.90;;;;;;5041236;28;20017;-56
2022/06/19 08:16:25;;;;;;;2.90;1.38;;;17.40;99.90;;;;;;5041792;28;20032;-52
2022/06/19 08:18:51;;;;;;;5.00;1.77;;;17.50;99.90;;;;;;5039621;28;20029;-54
2022/06/19 08:21:17;;;;;;;3.15;1.83;;;17.50;99.90;;;;;;5041318;28;20067;-54
2022/06/19 08:23:42;;;;;;;5.60;2.05;;;17.50;99.90;;;;;;5041286;28;20026;-54
2022/06/19 08:26:08;;;;;;;4.40;2.10;;;17.40;99.90;;;;;;5041010;28;20091;-54
2022/06/19 08:31:11;;;;;;;4.75;2.03;;;17.50;99.90;;;;;;5040804;28;20672;-54
2022/06/19 08:33:37;;;;;;;6.45;1.98;;;17.70;99.90;;;;;;5041563;28;20028;-52
2022/06/19 08:36:07;;;;;;;6.47;1.38;;;17.70;99.90;;;;;;5039509;28;20476;-55
2022/06/19 08:38:38;;;;;;;6.20;1.63;;;17.80;99.90;;;;;;5023846;28;20033;-55
2022/06/19 08:41:06;;;;;;;3.72;1.35;;;17.80;99.90;;;;;;5039891;28;20028;-54
2022/06/19 08:43:41;;;;;;;4.93;1.70;;;17.80;99.90;;;;;;5041091;28;20394;-51
2022/06/19 08:46:31;;;;;;;2.45;1.20;;;17.80;99.90;;;;;;5018545;28;20029;-54
2022/06/19 08:49:17;;;;;;;3.78;1.33;;;17.70;99.90;;;;;;5036836;28;20041;-50
2022/06/19 08:52:10;;;;;;;1.98;1.13;;;17.80;99.90;;;;;;5040485;28;20022;-54
2022/06/19 08:54:52;;;;;;;2.72;1.45;;;17.90;99.90;;;;;;5019342;28;20033;-55
2022/06/19 08:57:36;;;;;;;6.55;1.83;;;18.20;99.90;;;;;;5023563;28;20602;-53
2022/06/19 09:00:16;;;;;;;4.75;1.40;;;18.40;99.90;;;;;;5039533;28;20033;-52
2022/06/19 09:03:03;;;;;;;3.55;1.38;;;18.50;99.90;;;;;;5042885;28;20028;-53
2022/06/19 09:05:48;;;;;;;3.60;1.42;;;18.50;99.90;;;;;;5036489;28;20048;-55
2022/06/19 09:08:26;;;;;;;2.75;1.50;;;18.50;99.90;;;;;;5031483;28;20076;-52
2022/06/19 09:11:18;;;;;;;5.93;1.88;;;18.60;99.90;;;;;;5035082;28;20544;-54
2022/06/19 09:14:08;;;;;;;5.25;2.03;;;19.00;99.90;;;;;;5041032;28;20506;-55
2022/06/19 09:17:11;;;;;;;2.97;1.35;;;19.30;99.60;;;;;;5032825;28;20025;-51
2022/06/19 09:19:55;;;;;;;3.22;1.63;;;19.40;99.80;;;;;;4997592;28;20037;-53
2022/06/19 09:22:20;;;;;;;6.28;1.75;;;19.30;99.40;;;;;;5033430;28;20492;-53
2022/06/19 09:25:00;;;;;;;6.60;1.67;;;19.60;99.90;;;;;;5043855;28;20108;-51
2022/06/19 09:27:43;;;;;;;5.10;1.50;;;19.80;99.90;;;;;;5034478;28;20021;-53
2022/06/19 09:30:28;;;;;;;4.30;2.30;;;19.80;99.90;;;;;;5045346;28;20032;-51
2022/06/19 09:33:17;;;;;;;3.03;1.75;;;19.70;99.90;;;;;;5034629;28;20029;-55
2022/06/19 09:35:52;;;;;;;4.90;1.65;;;19.20;99.90;;;;;;5039276;28;20041;-51
2022/06/19 09:38:29;;;;;;;5.13;2.17;;;18.90;99.90;;;;;;5029389;28;20287;-51
2022/06/19 09:41:01;;;;;;;6.05;1.90;;;18.80;99.90;;;;;;5039650;28;20025;-49
2022/06/19 09:43:32;;;;;;;5.10;2.05;;;18.50;99.90;;;;;;5040756;28;20025;-52
2022/06/19 09:46:06;;;;;;;4.88;1.73;;;18.20;99.90;;;;;;5021612;28;20666;-53
2022/06/19 09:49:00;;;;;;;6.82;2.13;;;17.90;99.90;;;;;;5037164;28;20025;-52
2022/06/19 09:51:37;;;;;;;7.53;2.70;;;17.70;99.90;;;;;;5019192;28;20025;-49
2022/06/19 09:54:10;;;;;;;5.82;2.63;;;17.70;99.90;;;;;;5008368;28;20535;-54
2022/06/19 09:56:55;;;;;;;6.95;2.10;;;17.60;99.90;;;;;;5023714;28;20606;-54
2022/06/19 09:59:31;;;;;;;5.03;2.17;;;17.60;99.90;;;;;;5029231;28;20029;-55
2022/06/19 10:02:05;;;;;;;7.22;2.60;;;17.60;99.90;;;;;;5039180;28;20032;-55
2022/06/19 10:04:36;;;;;;;6.85;2.15;;;17.50;99.90;;;;;;5040705;28;20052;-52
2022/06/19 10:07:08;;;;;;;6.25;2.47;;;17.50;99.90;;;;;;5041614;28;20025;-50
2022/06/19 10:09:45;;;;;;;4.78;2.22;;;17.40;99.90;;;;;;5045677;28;20387;-53
2022/06/19 10:12:25;;;;;;;7.53;2.75;;;17.30;99.90;;;;;;5040997;28;20013;-51
2022/06/19 10:14:52;;;;;;;7.93;2.60;;;17.30;99.90;;;;;;5048541;28;20467;-54
2022/06/19 10:17:30;;;;;;;6.97;1.77;;;17.10;99.90;;;;;;5040610;28;20471;-52
2022/06/19 10:20:08;;;;;;;6.85;2.10;;;17.10;99.90;;;;;;5041960;28;20040;-54
2022/06/19 10:22:51;;;;;;;7.93;2.42;;;17.10;99.90;;;;;;5043596;28;20088;-54
2022/06/19 10:25:38;;;;;;;6.30;2.88;;;17.10;99.90;;;;;;5029650;28;20522;-50
2022/06/19 10:28:22;;;;;;;10.25;2.53;;;17.00;99.90;;;;;;5042717;28;20506;-55
2022/06/19 10:31:09;;;;;;;7.68;2.80;;;17.00;99.90;;;;;;5043936;28;20127;-53
2022/06/19 10:34:04;;;;;;;6.97;2.30;;;17.00;99.90;;;;;;5038576;28;20029;-52
2022/06/19 10:37:04;;;;;;;8.77;2.55;;;17.00;99.90;;;;;;5126760;22;20135;-48
2022/06/19 10:39:37;;;;;;;6.25;2.10;;;17.00;99.90;;;;;;5037417;28;20483;-45
2022/06/19 10:42:10;;;;;;;6.47;2.63;;;16.80;99.90;;;;;;5062076;28;20049;-48
2022/06/19 10:44:51;;;;;;;11.23;2.95;;;16.90;99.90;;;;;;5064475;28;20021;-46
2022/06/19 10:47:32;;;;;;;4.90;2.03;;;16.90;99.90;;;;;;5051665;28;20023;-46
2022/06/19 10:50:33;;;;;;;7.32;2.58;;;17.10;99.90;;;;;;5062389;28;20031;-47
2022/06/19 10:53:17;;;;;;;8.15;2.38;;;17.10;99.90;;;;;;5024762;28;20512;-50
2022/06/19 10:55:51;;;;;;;6.85;2.25;;;17.00;99.90;;;;;;5062829;28;20028;-50
2022/06/19 10:58:19;;;;;;;7.18;2.20;;;17.00;99.90;;;;;;5055614;28;20446;-51
2022/06/19 11:04:06;;;;;;;6.15;2.53;;;17.00;99.90;;;;;;5060155;28;20105;-46
2022/06/19 11:04:07;;;;;;;7.57;2.08;;;17.10;99.90;;;;;;5059049;28;20519;-46
2022/06/19 11:06:55;;;;;;;8.02;2.30;;;17.20;99.90;;;;;;5063513;28;20036;-44
2022/06/19 11:09:26;;;;;;;8.35;2.90;;;17.10;99.90;;;;;;5062113;28;20032;-48
2022/06/19 11:11:54;;;;;;;11.55;3.22;;;17.00;99.90;;;;;;5062326;28;20078;-48
2022/06/19 11:14:28;;;;;;;7.20;3.50;;;17.00;99.90;;;;;;5063144;28;20017;-47
2022/06/19 11:17:01;;;;;;;8.02;2.67;;;17.10;99.90;;;;;;5061095;28;20020;-46
2022/06/19 11:19:43;;;;;;;6.68;2.60;;;17.10;99.90;;;;;;5062669;28;20508;-49
2022/06/19 11:22:31;;;;;;;9.90;2.65;;;17.10;99.90;;;;;;5059758;28;20506;-47
2022/06/19 11:25:25;;;;;;;8.05;2.83;;;17.20;99.90;;;;;;5066471;28;20114;-47
2022/06/19 11:27:53;;;;;;;7.20;2.75;;;17.20;99.90;;;;;;5058950;28;20025;-47
2022/06/19 11:30:33;;;;;;;10.43;3.65;;;17.20;99.90;;;;;;5063014;28;20035;-46
2022/06/19 11:33:01;;;;;;;13.45;2.88;;;17.30;99.90;;;;;;5059592;28;20093;-47
2022/06/19 11:35:38;;;;;;;9.15;2.60;;;17.20;99.90;;;;;;5062681;28;20035;-46
2022/06/19 11:38:04;;;;;;;7.90;3.03;;;17.20;99.90;;;;;;5060680;28;20029;-47
2022/06/19 11:40:40;;;;;;;8.93;2.67;;;17.20;99.90;;;;;;5062762;28;20024;-46
2022/06/19 11:43:26;;;;;;;12.27;2.70;;;17.20;99.90;;;;;;5061841;28;20016;-47
2022/06/19 11:46:00;;;;;;;9.55;2.90;;;17.00;99.90;;;;;;5061927;28;20071;-47
2022/06/19 11:48:26;;;;;;;8.63;2.75;;;16.80;99.90;;;;;;5057655;28;20029;-44
2022/06/19 11:50:54;;;;;;;9.10;2.95;;;16.80;99.90;;;;;;5066064;28;20028;-47
2022/06/19 11:53:37;;;;;;;10.68;2.45;;;16.90;99.90;;;;;;5058616;28;20027;-46
2022/06/19 11:56:22;;;;;;;10.75;2.75;;;16.90;99.90;;;;;;5066641;28;20540;-48
2022/06/19 11:58:58;;;;;;;8.20;2.53;;;16.80;99.90;;;;;;5058767;28;20356;-48
2022/06/19 12:01:36;;;;;;;9.15;3.05;;;16.80;99.90;;;;;;5048536;28;20044;-47
2022/06/19 12:04:05;;;;;;;7.45;2.75;;;16.80;99.90;;;;;;5058738;28;20025;-45
2022/06/19 12:06:36;;;;;;;10.95;2.78;;;16.70;99.90;;;;;;5062197;28;20449;-45
2022/06/19 12:09:05;;;;;;;9.35;2.92;;;16.70;99.90;;;;;;5060714;28;20017;-46
2022/06/19 12:11:38;;;;;;;9.70;2.50;;;16.80;99.90;;;;;;5062124;28;20052;-48
2022/06/19 12:14:06;;;;;;;5.45;3.05;;;16.70;99.90;;;;;;5061805;28;20395;-45
2022/06/19 12:16:32;;;;;;;10.88;2.80;;;16.60;99.90;;;;;;5062373;28;20024;-44
2022/06/19 12:19:22;;;;;;;11.52;3.30;;;16.50;99.90;;;;;;5059808;28;20104;-47
2022/06/19 12:21:54;;;;;;;9.27;2.97;;;16.40;99.90;;;;;;5055571;28;20043;-46
2022/06/19 12:24:26;;;;;;;7.30;2.95;;;16.30;99.90;;;;;;5059701;28;20020;-45
2022/06/19 12:26:56;;;;;;;11.77;3.05;;;16.30;99.90;;;;;;5061072;28;20512;-45
2022/06/19 12:29:34;;;;;;;7.38;3.05;;;16.30;99.90;;;;;;5062166;28;20058;-45
2022/06/19 12:32:18;;;;;;;8.65;3.00;;;16.30;99.90;;;;;;5059512;28;20367;-45
2022/06/19 12:34:47;;;;;;;10.02;3.80;;;16.20;99.90;;;;;;5054158;28;20016;-47
2022/06/19 12:37:22;;;;;;;9.20;3.35;;;16.20;99.90;;;;;;5063996;28;20025;-47
2022/06/19 12:39:48;;;;;;;8.65;3.45;;;16.10;99.90;;;;;;5048903;28;20096;-50
2022/06/19 12:42:34;;;;;;;12.45;3.33;;;16.10;99.90;;;;;;5056512;28;20060;-47
2022/06/19 12:45:09;;;;;;;6.25;3.83;;;16.00;99.90;;;;;;5059711;28;20100;-48
2022/06/19 12:47:38;;;;;;;13.20;4.00;;;16.00;99.90;;;;;;5058247;28;20059;-47
2022/06/19 12:50:28;;;;;;;5.90;2.38;;;15.90;99.90;;;;;;5058295;28;20051;-49
2022/06/19 12:53:21;;;;;;;12.93;3.78;;;15.80;99.90;;;;;;5059842;28;20522;-49
2022/06/19 12:56:13;;;;;;;6.40;3.67;;;15.80;99.90;;;;;;5061066;28;20475;-48
2022/06/19 12:59:16;;;;;;;9.95;4.03;;;15.80;99.90;;;;;;5056918;28;20021;-46
2022/06/19 13:01:47;;;;;;;10.40;3.30;;;15.70;99.90;;;;;;5053316;28;20044;-51
2022/06/19 13:04:35;;;;;;;10.82;3.40;;;15.60;99.90;;;;;;5060750;28;20107;-46
2022/06/19 13:07:29;;;;;;;11.15;3.50;;;15.50;99.90;;;;;;5059004;28;20024;-44
2022/06/19 13:10:04;;;;;;;5.70;2.75;;;15.50;99.90;;;;;;5060412;28;20035;-46
2022/06/19 13:13:08;;;;;;;5.47;3.20;;;15.50;99.90;;;;;;5055869;28;20124;-44